createdAt,value
2022-10-17T00:00:56.017Z,7.00
2022-10-17T00:03:22.943Z,7.17
2022-10-17T00:05:50.783Z,6.20
2022-10-17T00:08:19.262Z,7.27
2022-10-17T00:10:56.045Z,6.60
2022-10-17T00:13:22.968Z,7.17
2022-10-17T00:15:49.855Z,7.43
2022-10-17T00:18:16.748Z,6.47
2022-10-17T00:20:43.675Z,6.30
2022-10-17T00:23:10.565Z,7.30
2022-10-17T00:25:37.440Z,6.80
2022-10-17T00:28:04.317Z,6.77
2022-10-17T00:30:32.772Z,6.23
2022-10-17T00:32:59.623Z,6.40
2022-10-17T00:35:26.499Z,6.03
2022-10-17T00:37:53.462Z,6.80
2022-10-17T00:40:20.355Z,6.80
2022-10-17T00:42:47.606Z,7.00
2022-10-17T00:45:16.558Z,6.20
2022-10-17T00:47:49.379Z,6.40
2022-10-17T00:50:16.690Z,6.77
2022-10-17T00:52:44.433Z,6.20
2022-10-17T00:55:29.528Z,6.33
2022-10-17T00:57:58.238Z,6.20
2022-10-17T01:00:25.244Z,6.80
2022-10-17T01:02:52.136Z,6.07
2022-10-17T01:05:20.163Z,5.40
2022-10-17T01:07:49.352Z,5.57
2022-10-17T01:10:16.981Z,5.40
2022-10-17T01:13:14.144Z,5.33
2022-10-17T01:15:59.470Z,5.73
2022-10-17T01:18:29.865Z,5.57
2022-10-17T01:21:31.691Z,5.20
2022-10-17T01:24:28.981Z,5.27
2022-10-17T01:27:46.392Z,5.37
2022-10-17T01:30:43.712Z,6.10
2022-10-17T01:33:19.056Z,4.87
2022-10-17T01:36:01.697Z,4.47
2022-10-17T01:38:46.167Z,5.00
2022-10-17T01:41:44.279Z,4.60
2022-10-17T01:44:36.998Z,5.67
2022-10-17T01:47:10.279Z,5.53
2022-10-17T01:49:41.128Z,5.23
2022-10-17T01:52:17.308Z,5.40
2022-10-17T01:55:22.349Z,6.03
2022-10-17T01:57:57.707Z,5.77
2022-10-17T02:00:27.139Z,5.40
2022-10-17T02:03:02.802Z,4.97
2022-10-17T02:05:39.651Z,4.57
2022-10-17T02:08:07.411Z,5.70
2022-10-17T02:10:42.286Z,5.57
2022-10-17T02:13:34.091Z,6.87
2022-10-17T02:16:31.202Z,5.07
2022-10-17T02:19:55.955Z,5.50
2022-10-17T02:22:48.481Z,5.60
2022-10-17T02:25:39.054Z,6.03
2022-10-17T02:28:14.775Z,5.53
2022-10-17T02:30:55.263Z,5.77
2022-10-17T02:33:56.938Z,5.70
2022-10-17T02:36:29.990Z,5.13
2022-10-17T02:38:58.197Z,5.33
2022-10-17T02:41:25.835Z,5.07
2022-10-17T02:43:55.635Z,5.23
2022-10-17T02:46:26.143Z,5.97
2022-10-17T02:49:06.049Z,5.67
2022-10-17T02:51:49.802Z,5.30
2022-10-17T02:54:40.011Z,5.20
2022-10-17T02:57:42.142Z,5.30
2022-10-17T03:00:14.836Z,5.80
2022-10-17T03:02:48.897Z,5.77
2022-10-17T03:05:25.766Z,5.37
2022-10-17T03:07:53.288Z,5.33
2022-10-17T03:10:21.154Z,5.57
2022-10-17T03:12:48.683Z,5.87
2022-10-17T03:15:15.623Z,4.70
2022-10-17T03:17:42.663Z,4.97
2022-10-17T03:20:10.127Z,5.50
2022-10-17T03:22:37.110Z,5.87
2022-10-17T03:25:04.253Z,5.23
2022-10-17T03:27:31.578Z,4.80
2022-10-17T03:29:58.738Z,5.27
2022-10-17T03:32:25.618Z,5.43
2022-10-17T03:34:52.526Z,5.30
2022-10-17T03:37:19.367Z,5.10
2022-10-17T03:39:46.369Z,5.60
2022-10-17T03:42:13.228Z,5.20
2022-10-17T03:44:40.161Z,5.67
2022-10-17T03:47:09.259Z,5.07
2022-10-17T03:49:38.828Z,5.00
2022-10-17T03:52:06.117Z,5.63
2022-10-17T03:54:33.028Z,5.70
2022-10-17T03:56:59.960Z,5.13
2022-10-17T03:59:26.870Z,6.10
2022-10-17T04:01:54.131Z,6.00
2022-10-17T04:04:21.171Z,6.10
2022-10-17T04:06:48.063Z,5.50
2022-10-17T04:09:15.043Z,6.00
2022-10-17T04:11:41.941Z,6.10
2022-10-17T04:14:10.822Z,6.50
2022-10-17T04:16:38.915Z,5.97
2022-10-17T04:19:05.836Z,5.87
2022-10-17T04:21:32.737Z,5.57
2022-10-17T04:24:00.887Z,6.30
2022-10-17T04:26:27.907Z,6.57
2022-10-17T04:28:54.763Z,5.93
2022-10-17T04:31:21.735Z,6.27
2022-10-17T04:33:50.039Z,5.43
2022-10-17T04:36:19.552Z,7.00
2022-10-17T04:38:46.915Z,7.00
2022-10-17T04:41:17.530Z,6.50
2022-10-17T04:43:48.482Z,6.97
2022-10-17T04:46:17.984Z,6.30
2022-10-17T04:48:44.851Z,6.00
2022-10-17T04:51:15.407Z,7.10
2022-10-17T04:53:43.751Z,6.27
2022-10-17T04:56:16.615Z,6.37
2022-10-17T04:58:44.722Z,6.80
2022-10-17T05:01:18.979Z,6.53
2022-10-17T05:03:46.492Z,7.30
2022-10-17T05:06:19.935Z,6.60
2022-10-17T05:08:47.818Z,6.30
2022-10-17T05:11:24.766Z,7.33
2022-10-17T05:13:55.825Z,7.83
2022-10-17T05:16:23.459Z,7.23
2022-10-17T05:18:53.368Z,6.40
2022-10-17T05:21:22.011Z,7.27
2022-10-17T05:23:49.214Z,6.67
2022-10-17T05:26:16.351Z,7.13
2022-10-17T05:28:43.282Z,6.67
2022-10-17T05:31:11.815Z,6.83
2022-10-17T05:33:39.944Z,7.07
2022-10-17T05:36:07.571Z,7.83
2022-10-17T05:38:34.752Z,7.70
2022-10-17T05:41:04.460Z,7.63
2022-10-17T05:43:32.568Z,7.67
2022-10-17T05:45:59.432Z,7.70
2022-10-17T05:48:26.381Z,7.30
2022-10-17T05:51:05.516Z,6.93
2022-10-17T05:53:35.262Z,7.37
2022-10-17T05:56:06.948Z,7.20
2022-10-17T05:58:52.311Z,6.70
2022-10-17T06:01:20.278Z,9.37
2022-10-17T06:03:47.272Z,6.33
2022-10-17T06:06:15.258Z,6.80
2022-10-17T06:08:43.033Z,6.40
2022-10-17T06:11:10.958Z,6.10
2022-10-17T06:13:39.428Z,5.13
2022-10-17T06:16:06.927Z,5.93
2022-10-17T06:18:33.934Z,5.67
2022-10-17T06:21:11.238Z,4.87
2022-10-17T06:23:38.236Z,4.90
2022-10-17T06:26:06.975Z,5.10
2022-10-17T06:28:34.518Z,5.17
2022-10-17T06:31:10.488Z,5.53
2022-10-17T06:33:37.770Z,4.87
2022-10-17T06:36:06.829Z,4.63
2022-10-17T06:38:36.731Z,4.53
2022-10-17T06:41:10.779Z,5.20
2022-10-17T06:43:38.902Z,4.33
2022-10-17T06:46:06.587Z,4.80
2022-10-17T06:48:33.931Z,4.73
2022-10-17T06:51:02.661Z,4.83
2022-10-17T06:53:34.876Z,3.90
2022-10-17T06:56:03.999Z,4.80
2022-10-17T06:58:41.281Z,4.33
2022-10-17T07:01:12.538Z,4.50
2022-10-17T07:03:41.020Z,4.40
2022-10-17T07:06:08.214Z,4.37
2022-10-17T07:08:35.058Z,5.47
2022-10-17T07:11:11.113Z,4.30
2022-10-17T07:13:39.331Z,4.30
2022-10-17T07:16:06.915Z,5.27
2022-10-17T07:18:34.205Z,4.00
2022-10-17T07:21:01.254Z,4.17
2022-10-17T07:23:28.517Z,4.20
2022-10-17T07:26:06.825Z,4.00
2022-10-17T07:28:36.657Z,3.97
2022-10-17T07:31:09.574Z,5.20
2022-10-17T07:33:36.634Z,4.27
2022-10-17T07:36:05.261Z,3.73
2022-10-17T07:38:32.810Z,4.03
2022-10-17T07:41:02.743Z,3.40
2022-10-17T07:43:30.575Z,3.90
2022-10-17T07:45:57.709Z,4.40
2022-10-17T07:48:25.341Z,7.27
2022-10-17T07:50:52.224Z,4.00
2022-10-17T07:53:19.644Z,3.87
2022-10-17T07:55:48.073Z,4.17
2022-10-17T07:58:15.751Z,3.03
2022-10-17T08:00:42.717Z,3.70
2022-10-17T08:03:10.946Z,3.20
2022-10-17T08:05:37.857Z,3.17
2022-10-17T08:08:04.924Z,4.00
2022-10-17T08:10:38.123Z,2.80
2022-10-17T08:13:43.189Z,4.03
2022-10-17T08:16:25.370Z,2.33
2022-10-17T08:19:16.381Z,3.50
2022-10-17T08:22:03.294Z,2.13
2022-10-17T08:24:34.310Z,2.80
2022-10-17T08:27:16.543Z,3.50
2022-10-17T08:29:48.932Z,2.67
2022-10-17T08:32:25.298Z,2.60
2022-10-17T08:34:56.622Z,3.30
2022-10-17T08:37:28.042Z,2.60
2022-10-17T08:39:58.920Z,2.73
2022-10-17T08:43:35.337Z,2.23
2022-10-17T08:50:16.564Z,2.70
2022-10-17T08:53:53.184Z,2.50
2022-10-17T08:56:53.351Z,2.27
2022-10-17T08:59:35.816Z,2.00
2022-10-17T09:03:11.206Z,2.30
2022-10-17T09:06:18.862Z,3.00
2022-10-17T09:08:51.849Z,2.00
2022-10-17T09:11:57.136Z,2.60
2022-10-17T09:15:05.203Z,2.20
2022-10-17T09:17:55.089Z,8.00
2022-10-17T09:20:33.089Z,11.20
2022-10-17T09:23:19.166Z,2.50
2022-10-17T09:25:53.396Z,2.73
2022-10-17T09:28:42.220Z,2.13
2022-10-17T09:31:45.449Z,3.13
2022-10-17T09:34:21.070Z,2.53
2022-10-17T09:36:58.900Z,2.20
2022-10-17T09:39:33.244Z,2.67
2022-10-17T09:42:02.784Z,2.50
2022-10-17T09:45:15.347Z,2.80
2022-10-17T09:48:37.783Z,2.70
2022-10-17T09:51:27.468Z,3.43
2022-10-17T09:54:04.135Z,1.93
2022-10-17T09:56:31.720Z,2.27
2022-10-17T09:59:03.143Z,3.03
2022-10-17T10:01:32.011Z,2.40
2022-10-17T10:04:19.419Z,2.87
2022-10-17T10:07:09.912Z,2.40
2022-10-17T10:09:40.363Z,2.40
2022-10-17T10:12:32.907Z,2.80
2022-10-17T10:15:10.532Z,2.80
2022-10-17T10:17:46.682Z,3.40
2022-10-17T10:20:53.153Z,2.40
2022-10-17T10:23:43.134Z,3.10
2022-10-17T10:29:47.310Z,2.50
2022-10-17T10:32:21.999Z,3.70
2022-10-17T10:35:20.112Z,2.50
2022-10-17T10:38:15.612Z,2.70
2022-10-17T10:41:11.038Z,2.27
2022-10-17T10:44:18.070Z,4.27
2022-10-17T10:47:12.014Z,4.40
2022-10-17T10:49:40.439Z,2.27
2022-10-17T10:52:53.096Z,2.20
2022-10-17T11:03:11.937Z,2.70
2022-10-17T11:06:21.339Z,2.60
2022-10-17T11:09:22.647Z,2.17
2022-10-17T11:12:20.325Z,2.33
2022-10-17T11:15:09.698Z,2.43
2022-10-17T11:17:59.213Z,2.37
2022-10-17T11:21:53.391Z,2.13
2022-10-17T11:25:00.930Z,2.40
2022-10-17T11:27:35.010Z,2.50
2022-10-17T11:30:04.124Z,2.47
2022-10-17T11:32:59.210Z,3.10
2022-10-17T11:35:50.436Z,2.70
2022-10-17T11:38:54.462Z,2.60
2022-10-17T11:42:30.079Z,2.80
2022-10-17T11:45:32.329Z,2.27
2022-10-17T11:48:34.881Z,2.73
2022-10-17T11:54:24.318Z,2.13
2022-10-17T11:57:03.588Z,2.43
2022-10-17T11:59:58.085Z,2.83
2022-10-17T12:02:49.610Z,2.27
2022-10-17T12:05:58.182Z,3.13
2022-10-17T12:09:00.696Z,1.90
2022-10-17T12:11:51.171Z,2.40
2022-10-17T12:14:51.200Z,2.20
2022-10-17T12:17:32.828Z,2.10
2022-10-17T12:20:25.366Z,2.40
2022-10-17T12:23:09.603Z,2.37
2022-10-17T12:26:16.871Z,2.43
2022-10-17T12:50:24.175Z,2.60
2022-10-17T12:53:43.999Z,2.67
2022-10-17T13:04:02.310Z,2.50
2022-10-17T13:18:43.111Z,2.93
2022-10-17T13:21:52.288Z,2.63
2022-10-17T13:25:02.897Z,2.57
2022-10-17T13:28:45.908Z,2.77
2022-10-17T13:32:05.186Z,2.90
2022-10-17T13:35:06.063Z,2.90
2022-10-17T13:41:45.631Z,2.83
2022-10-17T13:44:51.486Z,3.27
2022-10-17T13:48:16.470Z,3.00
2022-10-17T13:51:17.444Z,2.50
2022-10-17T13:54:06.570Z,2.60
2022-10-17T13:56:41.570Z,2.53
2022-10-17T13:59:41.935Z,2.10
2022-10-17T14:02:29.605Z,5.13
2022-10-17T14:05:29.648Z,2.63
2022-10-17T14:08:12.962Z,2.50
2022-10-17T14:10:47.537Z,2.77
2022-10-17T14:13:28.483Z,2.20
2022-10-17T14:16:04.256Z,4.10
2022-10-17T14:18:36.999Z,2.90
2022-10-17T14:21:40.966Z,3.57
2022-10-17T14:24:23.261Z,2.60
2022-10-17T14:27:00.592Z,2.17
2022-10-17T14:30:06.580Z,2.83
2022-10-17T14:32:37.941Z,2.63
2022-10-17T14:38:01.328Z,2.13
2022-10-17T14:40:36.154Z,1.90
2022-10-17T14:43:07.063Z,2.50
2022-10-17T14:45:39.388Z,2.37
2022-10-17T14:48:23.571Z,2.67
2022-10-17T14:51:16.573Z,2.90
2022-10-17T14:54:37.889Z,2.60
2022-10-17T14:57:37.601Z,3.20
2022-10-17T15:00:07.747Z,2.40
2022-10-17T15:02:40.911Z,2.80
2022-10-17T15:05:13.471Z,2.97
2022-10-17T15:07:48.436Z,2.60
2022-10-17T15:10:51.048Z,3.60
2022-10-17T15:13:29.025Z,2.60
2022-10-17T15:16:01.895Z,3.33
2022-10-17T15:18:35.818Z,2.80
2022-10-17T15:21:33.815Z,2.63
2022-10-17T15:24:17.648Z,3.43
2022-10-17T15:26:51.458Z,3.20
2022-10-17T15:29:33.042Z,3.03
2022-10-17T15:32:01.011Z,3.93
2022-10-17T15:34:52.905Z,3.60
2022-10-17T15:37:25.977Z,3.40
2022-10-17T15:40:04.995Z,3.80
2022-10-17T15:42:33.021Z,3.67
2022-10-17T15:45:01.097Z,3.20
2022-10-17T15:47:34.422Z,3.60
2022-10-17T15:50:03.157Z,4.00
2022-10-17T15:52:30.880Z,4.03
2022-10-17T15:55:00.989Z,3.60
2022-10-17T15:57:37.850Z,3.00
2022-10-17T16:00:31.804Z,3.57
2022-10-17T16:02:59.223Z,3.50
2022-10-17T16:05:28.554Z,3.93
2022-10-17T16:08:01.512Z,4.07
2022-10-17T16:13:25.658Z,3.87
2022-10-17T16:15:53.867Z,3.23
2022-10-17T16:18:21.529Z,3.27
2022-10-17T16:20:49.070Z,3.70
2022-10-17T16:23:16.666Z,3.47
2022-10-17T16:25:44.092Z,2.93
2022-10-17T16:28:12.248Z,3.90
2022-10-17T16:30:51.778Z,3.23
2022-10-17T16:33:24.997Z,3.70
2022-10-17T16:35:53.476Z,3.47
2022-10-17T16:38:24.019Z,3.50
2022-10-17T16:40:54.579Z,2.80
2022-10-17T16:43:25.490Z,3.30
2022-10-17T16:45:55.495Z,2.90
2022-10-17T16:48:44.360Z,3.20
2022-10-17T16:51:14.607Z,3.13
2022-10-17T16:53:53.378Z,3.10
2022-10-17T16:56:25.918Z,3.20
2022-10-17T16:58:58.130Z,2.70
2022-10-17T17:01:29.186Z,3.33
2022-10-17T17:03:57.981Z,4.13
2022-10-17T17:06:32.852Z,4.50
2022-10-17T17:09:03.131Z,3.87
2022-10-17T17:11:33.555Z,3.60
2022-10-17T17:14:05.212Z,3.40
2022-10-17T17:16:39.193Z,3.70
2022-10-17T17:19:25.521Z,3.73
2022-10-17T17:21:52.998Z,3.43
2022-10-17T17:24:47.366Z,3.10
2022-10-17T17:27:17.520Z,4.40
2022-10-17T17:29:45.485Z,4.30
2022-10-17T17:32:14.895Z,3.60
2022-10-17T17:37:38.888Z,4.97
2022-10-17T17:40:13.701Z,4.70
2022-10-17T17:42:41.034Z,3.83
2022-10-17T17:45:10.214Z,5.67
2022-10-17T17:47:55.011Z,5.50
2022-10-17T17:50:22.979Z,5.20
2022-10-17T17:52:54.024Z,6.43
2022-10-17T17:55:22.219Z,5.27
2022-10-17T17:57:58.700Z,4.57
2022-10-17T18:00:29.914Z,5.23
2022-10-17T18:03:00.756Z,5.40
2022-10-17T18:05:34.871Z,5.00
2022-10-17T18:08:02.087Z,4.07
2022-10-17T18:10:33.061Z,4.97
2022-10-17T18:13:00.625Z,4.70
2022-10-17T18:15:33.011Z,5.80
2022-10-17T18:18:01.575Z,5.90
2022-10-17T18:20:33.193Z,4.53
2022-10-17T18:23:04.377Z,6.20
2022-10-17T18:25:35.601Z,6.07
2022-10-17T18:28:07.456Z,5.93
2022-10-17T18:30:39.984Z,5.60
2022-10-17T18:33:07.862Z,6.80
2022-10-17T18:35:40.553Z,7.03
2022-10-17T18:38:07.628Z,6.20
2022-10-17T18:40:35.601Z,6.40
2022-10-17T18:43:03.279Z,6.37
2022-10-17T18:45:39.747Z,5.70
2022-10-17T18:48:10.891Z,7.57
2022-10-17T18:50:39.847Z,6.47
2022-10-17T18:53:13.952Z,6.40
2022-10-17T18:56:02.460Z,7.80
2022-10-17T18:58:43.129Z,5.90
2022-10-17T19:01:24.568Z,5.03
2022-10-17T19:04:02.398Z,6.30
2022-10-17T19:06:39.115Z,5.97
2022-10-17T19:09:17.169Z,6.10
2022-10-17T19:11:44.285Z,6.13
2022-10-17T19:14:13.419Z,5.53
2022-10-17T19:16:50.866Z,6.20
2022-10-17T19:19:23.975Z,5.70
2022-10-17T19:21:51.727Z,6.07
2022-10-17T19:24:24.951Z,5.77
2022-10-17T19:26:54.797Z,5.60
2022-10-17T19:29:24.993Z,5.07
2022-10-17T19:31:52.712Z,5.60
2022-10-17T19:34:20.430Z,5.70
2022-10-17T19:36:47.406Z,5.30
2022-10-17T19:39:20.935Z,4.63
2022-10-17T19:41:48.730Z,4.40
2022-10-17T19:44:16.266Z,5.23
2022-10-17T19:46:46.876Z,5.07
2022-10-17T19:49:14.565Z,5.20
2022-10-17T19:51:41.559Z,4.60
2022-10-17T19:54:09.223Z,5.53
2022-10-17T19:56:38.018Z,5.17
2022-10-17T19:59:07.186Z,5.80
2022-10-17T20:01:38.741Z,6.80
2022-10-17T20:04:10.862Z,5.20
2022-10-17T20:06:39.171Z,5.50
2022-10-17T20:09:08.766Z,6.23
2022-10-17T20:11:38.023Z,5.33
2022-10-17T20:14:05.834Z,5.00
2022-10-17T20:16:35.035Z,4.73
2022-10-17T20:19:09.681Z,5.60
2022-10-17T20:21:39.584Z,6.00
2022-10-17T20:24:09.971Z,5.70
2022-10-17T20:26:39.086Z,5.33
2022-10-17T20:29:11.961Z,6.23
2022-10-17T20:31:41.020Z,7.37
2022-10-17T20:34:08.094Z,7.00
2022-10-17T20:36:37.394Z,6.93
2022-10-17T20:39:05.992Z,7.37
2022-10-17T20:41:33.235Z,7.50
2022-10-17T20:44:00.141Z,8.00
2022-10-17T20:46:36.871Z,8.23
2022-10-17T20:49:09.773Z,7.77
2022-10-17T20:51:36.806Z,8.20
2022-10-17T20:54:04.819Z,7.40
2022-10-17T20:56:33.611Z,7.43
2022-10-17T20:59:07.783Z,8.47
2022-10-17T21:01:36.212Z,12.63
2022-10-17T21:04:44.226Z,9.63
2022-10-17T21:06:53.373Z,8.87
2022-10-17T21:09:21.987Z,9.30
2022-10-17T21:11:51.506Z,7.63
2022-10-17T21:14:18.998Z,7.93
2022-10-17T21:16:45.960Z,7.93
2022-10-17T21:19:14.236Z,8.17
2022-10-17T21:21:44.658Z,8.87
2022-10-17T21:24:14.587Z,9.27
2022-10-17T21:26:43.295Z,9.17
2022-10-17T21:29:12.827Z,8.97
2022-10-17T21:31:42.691Z,9.10
2022-10-17T21:34:13.866Z,13.10
2022-10-17T21:36:41.542Z,9.27
2022-10-17T21:39:10.280Z,9.40
2022-10-17T21:41:37.783Z,7.67
2022-10-17T21:44:10.452Z,8.97
2022-10-17T21:46:37.408Z,8.80
2022-10-17T21:49:04.362Z,8.40
2022-10-17T21:51:31.201Z,8.47
2022-10-17T21:53:58.401Z,8.53
2022-10-17T21:56:28.632Z,9.67
2022-10-17T21:58:56.979Z,8.23
2022-10-17T22:01:30.349Z,9.07
2022-10-17T22:04:00.991Z,9.87
2022-10-17T22:06:40.274Z,8.47
2022-10-17T22:09:17.322Z,8.20
2022-10-17T22:11:50.387Z,7.83
2022-10-17T22:14:20.954Z,8.50
2022-10-17T22:16:49.158Z,8.43
2022-10-17T22:19:24.719Z,8.27
2022-10-17T22:21:51.735Z,9.63
2022-10-17T22:26:49.224Z,9.00
2022-10-17T22:29:16.742Z,7.97
2022-10-17T22:31:43.929Z,8.57
2022-10-17T22:34:14.497Z,7.40
2022-10-17T22:36:41.977Z,8.80
2022-10-17T22:39:10.186Z,7.30
2022-10-17T22:41:37.366Z,8.13
2022-10-17T22:44:05.415Z,7.57
2022-10-17T22:46:32.637Z,7.50
2022-10-17T22:49:01.061Z,8.30
2022-10-17T22:51:28.627Z,7.43
2022-10-17T22:53:55.841Z,8.10
2022-10-17T22:56:23.706Z,8.73
2022-10-17T22:58:53.245Z,7.70
2022-10-17T23:01:23.970Z,8.93
2022-10-17T23:03:53.652Z,8.13
2022-10-17T23:06:21.941Z,7.90
2022-10-17T23:08:49.159Z,8.30
2022-10-17T23:11:17.852Z,8.30
2022-10-17T23:13:45.551Z,7.80
2022-10-17T23:16:12.502Z,8.10
2022-10-17T23:18:39.713Z,7.83
2022-10-17T23:21:07.679Z,8.90
2022-10-17T23:23:36.422Z,8.10
2022-10-17T23:26:15.012Z,9.17
2022-10-17T23:28:43.677Z,7.53
2022-10-17T23:31:18.884Z,8.63
2022-10-17T23:33:48.899Z,6.87
2022-10-17T23:36:20.119Z,6.90
2022-10-17T23:38:48.458Z,7.53
2022-10-17T23:41:16.393Z,8.13
2022-10-17T23:43:43.888Z,7.23
2022-10-17T23:46:10.939Z,8.03
2022-10-17T23:48:38.821Z,7.17
2022-10-17T23:51:07.603Z,8.20
2022-10-17T23:53:35.711Z,7.03
2022-10-17T23:56:03.021Z,7.30
2022-10-17T23:58:30.182Z,7.63
